首页
METAR-TAF:

METAR-TAF

机场 :

佩吉, 亞利桑那州, 美国

纬度: 36-55-14N, 经度: 111-26-53W, 海拔: 1314米

当前天气观测

该预报发布于25分钟前的23:53 UTC
风速9节,风向南转西南,有时为17节阵风
温度 40°C
湿度 5%
气压 1014 hPa
能見度: 16.1公里
天空无云

METAR: KPGA 122353Z AUTO 20009G17KT 10SM CLR 40/M07 A2995 RMK AO2 PK WND 21027/2308 SLP059 T04001072 10406 20344 56018

时间: 17:18 (00:18 UTC)

预报

该预报发布于58分钟前的23:20 UTC
预报有效从13日的 00点(UTC)到 13日的 24点(UTC)
风速9节,风向西
能見度: 10公里
天空无云
从 13日的 0200点(UTC)
风速5节,风向多变
能見度: 10公里
天空无云
从 13日的 1600点(UTC)
风速5节,风向北转东北
能見度: 10公里
多云层高于18000英尺
从 13日的 2000点(UTC)
风速10节,风向西南,有时为18节阵风
能見度: 10公里
多云层高于18000英尺

TAF: KPGA 122320Z 1300/1324 26009KT P6SM SKC FM130200 VRB05KT P6SM SKC FM131600 02005KT P6SM BKN180 FM132000 23010G18KT P6SM BKN180

超过4000个机场的气象观测和天气预报(METAR&TAF报告)。

可查询的气象台以黄色和红色小点在地图上表示。

将鼠标移到小点上方,可查看气象台名称。

然后点击查看天气观测和预报。

如需切换地图:点击带黑十字的绿色按钮放大地图;点击带横线的绿色按钮缩小地图;或者点击绿色箭头查看邻近地区的地图。


METAR-TAF: